Time;durP1;ratioP1;P1;durP2;ratioP2;P2;SDS_P1;SDS_P2;PMS_P1;PMS_P2;Temp;Humidity;BMP_temperature;BMP_pressure;BME280_temperature;BME280_humidity;BME280_pressure;Samples;Min_cycle;Max_cycle;Signal;HPM_P1;HPM_P2
2022/03/25 00:00:58;;;;;;;48.85;22.73;;;;;;;12.08;39.95;102865.97;4972211;28;110301;-59
2022/03/25 00:03:26;;;;;;;49.97;22.27;;;;;;;12.03;40.49;102863.38;4972499;28;124403;-59
2022/03/25 00:05:54;;;;;;;45.90;21.88;;;;;;;12.00;40.36;102867.88;4972738;28;124545;-59
2022/03/25 00:08:21;;;;;;;50.78;22.15;;;;;;;11.94;40.40;102867.97;4974335;28;108028;-60
2022/03/25 00:10:48;;;;;;;47.85;21.92;;;;;;;11.88;40.59;102868.94;4973657;28;109982;-59
2022/03/25 00:13:15;;;;;;;46.83;21.42;;;;;;;11.84;40.39;102872.56;4973766;28;123809;-59
2022/03/25 00:15:42;;;;;;;45.75;22.05;;;;;;;11.80;40.57;102866.41;4975384;28;124816;-60
2022/03/25 00:18:09;;;;;;;44.63;19.95;;;;;;;11.76;40.79;102870.03;4972894;28;109444;-59
2022/03/25 00:20:36;;;;;;;45.35;20.35;;;;;;;11.73;40.70;102870.06;4972660;28;110844;-59
2022/03/25 00:23:04;;;;;;;44.65;20.23;;;;;;;11.68;40.69;102869.31;4972998;28;124651;-60
2022/03/25 00:25:31;;;;;;;50.47;21.80;;;;;;;11.67;40.54;102864.88;4973748;28;123972;-60
2022/03/25 00:27:58;;;;;;;44.92;20.33;;;;;;;11.65;40.63;102866.69;4972740;28;109005;-60
2022/03/25 00:30:25;;;;;;;46.22;21.05;;;;;;;11.64;40.64;102870.22;4973690;28;108976;-60
2022/03/25 00:32:54;;;;;;;51.40;22.60;;;;;;;11.60;40.76;102868.53;4973543;28;122850;-60
2022/03/25 00:35:21;;;;;;;50.53;20.75;;;;;;;11.56;40.97;102872.16;4972006;28;123720;-60
2022/03/25 00:37:48;;;;;;;47.33;20.83;;;;;;;11.54;40.73;102873.94;4973757;28;110167;-60
2022/03/25 00:40:15;;;;;;;45.50;20.90;;;;;;;11.53;40.89;102874.84;4973100;28;109026;-60
2022/03/25 00:42:47;;;;;;;45.50;20.30;;;;;;;11.50;40.79;102868.69;4973447;28;123910;-59
2022/03/25 00:45:14;;;;;;;50.70;21.50;;;;;;;11.49;41.08;102866.94;4973143;28;123075;-60
2022/03/25 00:47:42;;;;;;;49.83;21.13;;;;;;;11.48;41.15;102870.50;4973179;28;110282;-60
2022/03/25 00:50:11;;;;;;;51.70;20.75;;;;;;;11.46;41.11;102864.34;4970670;28;108939;-60
2022/03/25 00:52:38;;;;;;;47.80;21.08;;;;;;;11.45;41.29;102870.56;4973147;28;123771;-60
2022/03/25 00:55:06;;;;;;;48.47;20.83;;;;;;;11.42;40.90;102870.59;4973711;28;122804;-60
2022/03/25 00:57:34;;;;;;;43.10;19.63;;;;;;;11.40;41.13;102872.41;4974304;28;109439;-60
2022/03/25 01:00:01;;;;;;;47.50;20.45;;;;;;;11.38;41.10;102868.91;4971496;28;109745;-60
2022/03/25 01:02:30;;;;;;;45.25;20.50;;;;;;;11.34;41.17;102872.50;4971409;28;123963;-61
2022/03/25 01:04:57;;;;;;;47.33;19.65;;;;;;;11.31;41.16;102872.53;4973169;28;123489;-60
2022/03/25 01:07:25;;;;;;;48.33;19.95;;;;;;;11.28;41.53;102869.94;4971912;28;109586;-60
2022/03/25 01:09:53;;;;;;;43.45;19.65;;;;;;;11.26;41.61;102869.06;4972224;28;108829;-60
2022/03/25 01:12:21;;;;;;;45.80;20.48;;;;;;;11.25;41.32;102867.34;4972528;28;123432;-60
2022/03/25 01:14:49;;;;;;;44.63;19.80;;;;;;;11.23;41.43;102871.78;4971321;28;124293;-59
2022/03/25 01:17:16;;;;;;;43.58;19.25;;;;;;;11.22;41.32;102862.06;4973424;28;108280;-60
2022/03/25 01:19:44;;;;;;;44.13;19.55;;;;;;;11.20;41.49;102869.19;4972387;28;109255;-60
2022/03/25 01:22:15;;;;;;;44.38;19.63;;;;;;;11.20;41.49;102874.47;4972687;28;123235;-60
2022/03/25 01:24:42;;;;;;;45.63;19.05;;;;;;;11.18;41.46;102873.63;4972924;28;122661;-60
2022/03/25 01:27:09;;;;;;;39.67;18.58;;;;;;;11.18;41.52;102878.94;4972230;28;110333;-59
2022/03/25 01:29:37;;;;;;;43.70;18.52;;;;;;;11.17;41.58;102885.13;4973741;28;109059;-60
2022/03/25 01:32:07;;;;;;;40.75;18.38;;;;;;;11.17;41.48;102874.50;4972111;28;123570;-60
2022/03/25 01:34:34;;;;;;;43.83;18.73;;;;;;;11.17;41.38;102874.50;4973151;28;122365;-60
2022/03/25 01:37:02;;;;;;;38.90;18.20;;;;;;;11.17;41.67;102875.41;4974177;28;109317;-60
2022/03/25 01:39:30;;;;;;;40.45;17.45;;;;;;;11.17;41.64;102870.09;4970493;28;110239;-60
2022/03/25 01:41:57;;;;;;;41.85;18.55;;;;;;;11.18;41.58;102870.97;4971384;28;124017;-60
2022/03/25 01:44:27;;;;;;;42.30;18.35;;;;;;;11.18;41.43;102870.97;4972330;28;122800;-60
2022/03/25 01:46:57;;;;;;;44.42;19.25;;;;;;;11.18;41.74;102871.84;4971659;28;109280;-60
2022/03/25 01:49:25;;;;;;;39.50;17.50;;;;;;;11.19;41.79;102856.78;4973196;28;108833;-60
2022/03/25 01:51:55;;;;;;;44.38;18.25;;;;;;;11.18;41.79;102860.38;4971326;28;122921;-60
2022/03/25 01:54:25;;;;;;;42.60;18.27;;;;;;;11.18;41.34;102866.53;4963177;28;122902;-60
2022/03/25 01:56:56;;;;;;;38.35;18.02;;;;;;;11.16;41.45;102863.03;4973019;28;107960;-60
2022/03/25 01:59:24;;;;;;;43.47;18.83;;;;;;;11.15;41.57;102865.72;4972670;28;108961;-60
2022/03/25 02:01:54;;;;;;;47.17;20.30;;;;;;;11.13;41.26;102862.19;4972447;28;125341;-60
2022/03/25 02:04:23;;;;;;;38.78;17.40;;;;;;;11.09;41.50;102866.66;4972267;28;122918;-60
2022/03/25 02:06:51;;;;;;;40.97;18.73;;;;;;;11.05;41.33;102855.22;4972652;28;108175;-60
2022/03/25 02:09:19;;;;;;;41.17;18.20;;;;;;;11.03;41.45;102862.34;4972761;28;109031;-60
2022/03/25 02:11:48;;;;;;;40.53;17.58;;;;;;;10.99;41.37;102871.25;4971604;28;123425;-60
2022/03/25 02:14:16;;;;;;;40.78;18.80;;;;;;;10.94;41.43;102866.91;4972327;28;122960;-60
2022/03/25 02:16:46;;;;;;;41.03;18.20;;;;;;;10.86;41.33;102864.34;4972698;28;109623;-60
2022/03/25 02:19:18;;;;;;;43.40;19.02;;;;;;;10.80;41.27;102859.16;4972840;28;109559;-60
2022/03/25 02:21:49;;;;;;;40.88;18.45;;;;;;;10.74;41.56;102859.19;4971607;28;125647;-60
2022/03/25 02:24:22;;;;;;;46.15;19.42;;;;;;;10.68;41.16;102860.16;4971731;28;126529;-60
2022/03/25 02:26:51;;;;;;;41.92;18.02;;;;;;;10.64;41.49;102854.06;4972122;28;108394;-60
2022/03/25 02:29:19;;;;;;;42.90;18.27;;;;;;;10.61;41.65;102854.09;4972374;28;109212;-60
2022/03/25 02:31:47;;;;;;;43.38;18.23;;;;;;;10.58;41.54;102859.41;4971501;28;123271;-60
2022/03/25 02:34:14;;;;;;;45.05;19.17;;;;;;;10.56;42.09;102861.19;4972170;28;123479;-60
2022/03/25 02:36:44;;;;;;;43.15;18.80;;;;;;;10.54;41.59;102852.41;4972885;28;110787;-60
2022/03/25 02:39:13;;;;;;;42.22;17.65;;;;;;;10.52;41.45;102860.38;4973135;28;109725;-60
2022/03/25 02:41:41;;;;;;;42.55;18.80;;;;;;;10.48;41.77;102852.47;4970954;28;123459;-60
2022/03/25 02:44:10;;;;;;;41.20;19.00;;;;;;;10.43;41.63;102860.47;4971974;28;122994;-60
2022/03/25 02:46:41;;;;;;;45.90;18.60;;;;;;;10.37;41.86;102855.25;4972465;28;109173;-60
2022/03/25 02:49:09;;;;;;;45.08;18.63;;;;;;;10.33;41.80;102859.72;4972482;28;109126;-60
2022/03/25 02:51:36;;;;;;;38.80;17.88;;;;;;;10.29;41.77;102857.97;4952588;28;123899;-60
2022/03/25 02:54:03;;;;;;;40.45;17.88;;;;;;;10.23;41.99;102858.03;4952669;28;124265;-60
2022/03/25 02:56:31;;;;;;;41.30;17.65;;;;;;;10.21;41.90;102865.13;4956222;28;109099;-60
2022/03/25 02:58:59;;;;;;;41.17;17.73;;;;;;;10.15;41.89;102859.88;4954431;28;109865;-60
2022/03/25 03:01:27;;;;;;;44.17;17.95;;;;;;;10.12;42.04;102859.94;4954321;28;123970;-60
2022/03/25 03:03:54;;;;;;;41.25;18.23;;;;;;;10.09;41.88;102865.25;4955529;28;124026;-60
2022/03/25 03:06:21;;;;;;;42.15;17.52;;;;;;;10.06;42.24;102870.59;4956358;28;110560;-60
2022/03/25 03:08:48;;;;;;;41.45;18.02;;;;;;;10.00;42.00;102865.34;4953964;28;109890;-60
2022/03/25 03:11:16;;;;;;;44.00;18.27;;;;;;;9.97;42.15;102875.97;4953470;28;124043;-60
2022/03/25 03:13:44;;;;;;;44.70;18.38;;;;;;;9.87;42.07;102876.06;4955452;28;124469;-60
2022/03/25 03:16:11;;;;;;;45.95;18.35;;;;;;;9.80;41.89;102873.47;4970527;28;109138;-60
2022/03/25 03:18:39;;;;;;;45.00;18.98;;;;;;;9.72;42.26;102868.25;4955987;28;110052;-61
2022/03/25 03:21:06;;;;;;;42.65;18.25;;;;;;;9.66;42.21;102865.66;4952566;28;124817;-60
2022/03/25 03:23:34;;;;;;;42.58;18.40;;;;;;;9.63;42.28;102865.69;4956217;28;124798;-60
2022/03/25 03:26:01;;;;;;;43.42;18.45;;;;;;;9.59;42.45;102869.22;4953989;28;109045;-60
2022/03/25 03:28:28;;;;;;;42.08;17.20;;;;;;;9.55;42.29;102869.28;4953926;28;109630;-60
2022/03/25 03:30:55;;;;;;;40.13;18.20;;;;;;;9.53;42.39;102867.50;4954200;28;124278;-60
2022/03/25 03:33:23;;;;;;;42.58;17.80;;;;;;;9.49;42.51;102858.75;4954820;28;123963;-60
2022/03/25 03:35:50;;;;;;;46.42;19.23;;;;;;;9.45;42.30;102857.00;4953957;28;109116;-60
2022/03/25 03:38:17;;;;;;;47.70;19.13;;;;;;;9.44;42.44;102860.53;4954107;28;110747;-60
2022/03/25 03:40:44;;;;;;;42.22;18.50;;;;;;;9.44;42.77;102863.19;4952718;28;124741;-60
2022/03/25 03:43:12;;;;;;;41.25;18.25;;;;;;;9.42;42.63;102857.03;4954424;28;123804;-60
2022/03/25 03:45:39;;;;;;;44.22;18.67;;;;;;;9.40;42.40;102853.53;4955919;28;109203;-60
2022/03/25 03:48:06;;;;;;;43.67;18.85;;;;;;;9.36;42.75;102851.78;4956431;28;109944;-60
2022/03/25 03:50:32;;;;;;;46.45;18.75;;;;;;;9.34;42.51;102858.84;4952577;28;124251;-60
2022/03/25 03:53:00;;;;;;;44.30;18.50;;;;;;;9.32;42.67;102855.34;4954133;28;124264;-60
2022/03/25 03:55:27;;;;;;;40.45;17.77;;;;;;;9.28;42.50;102858.91;4961628;28;110183;-60
2022/03/25 03:57:54;;;;;;;41.50;17.52;;;;;;;9.24;42.49;102857.16;4974932;28;110484;-60
2022/03/25 04:00:24;;;;;;;42.53;18.33;;;;;;;9.20;42.52;102855.44;4973913;28;123925;-60
2022/03/25 04:02:52;;;;;;;42.42;17.55;;;;;;;9.18;42.57;102854.56;4973225;28;123944;-60
2022/03/25 04:05:20;;;;;;;46.80;19.48;;;;;;;9.15;42.97;102859.00;4975696;28;109253;-60
2022/03/25 04:07:48;;;;;;;42.80;19.13;;;;;;;9.12;42.62;102864.28;4972746;28;109670;-60
2022/03/25 04:10:16;;;;;;;44.85;18.55;;;;;;;9.08;42.87;102867.84;4973227;28;124055;-60
2022/03/25 04:12:44;;;;;;;45.13;19.17;;;;;;;9.03;42.98;102869.63;4974047;28;124832;-60
2022/03/25 04:15:12;;;;;;;40.75;18.52;;;;;;;8.99;42.73;102873.19;4972827;28;109397;-59
2022/03/25 04:17:41;;;;;;;41.60;19.27;;;;;;;8.94;42.83;102869.69;4972891;28;109726;-60
2022/03/25 04:20:12;;;;;;;43.40;18.30;;;;;;;8.90;43.05;102878.53;4972025;28;124393;-60
2022/03/25 04:22:39;;;;;;;40.83;18.65;;;;;;;8.85;42.93;102875.88;4973159;28;123907;-60
2022/03/25 04:25:07;;;;;;;41.47;17.33;;;;;;;8.81;42.77;102878.56;4972861;28;109319;-60
2022/03/25 04:27:55;;;;;;;46.70;19.02;;;;;;;8.76;42.93;102881.25;4972868;28;110154;-59
2022/03/25 04:30:31;;;;;;;38.88;18.15;;;;;;;8.70;42.79;102882.16;4971282;28;124017;-59
2022/03/25 04:33:00;;;;;;;44.65;18.30;;;;;;;8.65;43.10;102889.22;4973084;28;123941;-60
2022/03/25 04:35:28;;;;;;;43.70;18.27;;;;;;;8.59;42.79;102883.97;4971318;28;109477;-60
2022/03/25 04:37:56;;;;;;;41.85;17.73;;;;;;;8.55;43.15;102884.81;4974420;28;109455;-60
2022/03/25 04:40:26;;;;;;;45.95;17.65;;;;;;;8.52;43.25;102884.84;4973530;28;124729;-60
2022/03/25 04:42:54;;;;;;;42.58;17.90;;;;;;;8.49;42.95;102876.94;4974570;28;124366;-60
2022/03/25 04:45:24;;;;;;;44.63;18.42;;;;;;;8.48;42.90;102886.63;4973026;28;110283;-60
2022/03/25 04:47:52;;;;;;;43.58;19.10;;;;;;;8.47;43.23;102889.28;4972563;28;110805;-59
2022/03/25 04:50:20;;;;;;;49.92;19.15;;;;;;;8.44;43.44;102892.81;4973896;28;124140;-59
2022/03/25 04:52:47;;;;;;;47.65;19.20;;;;;;;8.44;43.23;102894.53;4971916;28;125339;-59
2022/03/25 04:55:17;;;;;;;45.65;18.70;;;;;;;8.42;43.30;102891.03;4972039;28;109191;-62
2022/03/25 04:57:45;;;;;;;44.42;19.55;;;;;;;8.39;43.19;102887.50;4972919;28;110169;-59
2022/03/25 05:00:13;;;;;;;47.30;19.27;;;;;;;8.37;43.43;102894.53;4971903;28;124100;-60
2022/03/25 05:02:41;;;;;;;48.20;18.27;;;;;;;8.34;43.50;102894.56;4972239;28;124272;-59
2022/03/25 05:05:08;;;;;;;48.53;19.65;;;;;;;8.33;43.39;102898.06;4972072;28;109281;-60
2022/03/25 05:07:39;;;;;;;43.92;18.98;;;;;;;8.31;43.32;102889.28;4971725;28;109698;-60
2022/03/25 05:10:07;;;;;;;45.85;19.50;;;;;;;8.30;43.56;102886.63;4971104;28;124795;-60
2022/03/25 05:12:34;;;;;;;50.10;19.30;;;;;;;8.29;43.67;102895.47;4971696;28;124191;-59
2022/03/25 05:15:01;;;;;;;46.60;19.48;;;;;;;8.26;43.58;102891.03;4971823;28;109541;-59
2022/03/25 05:17:28;;;;;;;44.67;19.15;;;;;;;8.25;43.73;102894.59;4970923;28;110557;-59
2022/03/25 05:19:56;;;;;;;44.22;19.38;;;;;;;8.23;43.36;102890.16;4972016;28;124357;-59
2022/03/25 05:22:23;;;;;;;45.15;19.90;;;;;;;8.21;43.54;102898.09;4971094;28;124396;-60
2022/03/25 05:24:50;;;;;;;49.90;20.08;;;;;;;8.19;43.66;102897.22;4970907;28;109675;-59
2022/03/25 05:27:17;;;;;;;47.67;19.58;;;;;;;8.17;43.48;102897.25;4970892;28;109698;-60
2022/03/25 05:29:44;;;;;;;48.17;20.65;;;;;;;8.15;43.77;102887.56;4971377;28;123906;-59
2022/03/25 05:32:12;;;;;;;48.42;19.17;;;;;;;8.13;43.58;102891.97;4973125;28;124993;-60
2022/03/25 05:34:39;;;;;;;46.95;18.45;;;;;;;8.10;43.44;102899.88;4972175;28;110017;-60
2022/03/25 05:37:07;;;;;;;51.97;19.55;;;;;;;8.08;43.82;102901.63;4972769;28;109145;-60
2022/03/25 05:39:34;;;;;;;53.20;20.08;;;;;;;8.06;43.86;102890.19;4971150;28;124303;-60
2022/03/25 05:42:01;;;;;;;48.20;20.42;;;;;;;8.05;43.77;102906.94;4972195;28;123798;-60
2022/03/25 05:44:30;;;;;;;55.83;21.30;;;;;;;8.04;43.82;102889.31;4974310;28;109434;-60
2022/03/25 05:46:57;;;;;;;47.90;20.15;;;;;;;8.03;43.71;102908.69;4974233;28;110056;-59
2022/03/25 05:49:24;;;;;;;45.58;19.80;;;;;;;8.02;43.73;102912.22;4973661;28;123986;-59
2022/03/25 05:51:52;;;;;;;50.42;20.20;;;;;;;8.01;43.77;102910.47;4971344;28;125332;-59
2022/03/25 05:54:19;;;;;;;48.03;19.10;;;;;;;8.01;43.77;102910.47;4973815;28;109515;-60
2022/03/25 05:56:46;;;;;;;47.03;19.92;;;;;;;7.97;43.78;102913.09;4974250;28;109907;-61
2022/03/25 05:59:13;;;;;;;44.90;18.77;;;;;;;7.96;44.04;102906.03;4972760;28;124043;-60
2022/03/25 06:01:40;;;;;;;52.63;20.17;;;;;;;7.93;43.89;102913.06;4970055;28;124366;-60
2022/03/25 06:04:08;;;;;;;47.88;19.30;;;;;;;7.90;44.13;102919.25;4973455;28;109167;-61
2022/03/25 06:06:35;;;;;;;50.45;20.23;;;;;;;7.88;44.17;102921.00;4970861;28;110814;-61
2022/03/25 06:09:02;;;;;;;48.72;20.63;;;;;;;7.87;44.30;102916.59;4970745;28;124078;-60
2022/03/25 06:11:29;;;;;;;46.65;18.95;;;;;;;7.86;44.28;102922.78;4971784;28;124284;-61
2022/03/25 06:13:57;;;;;;;53.72;20.15;;;;;;;7.85;44.45;102926.28;4973571;28;109001;-60
2022/03/25 06:16:24;;;;;;;48.47;21.70;;;;;;;7.86;44.21;102927.19;4972954;28;108898;-60
2022/03/25 06:18:52;;;;;;;56.05;21.42;;;;;;;7.86;44.22;102928.06;4972534;28;123577;-60
2022/03/25 06:21:20;;;;;;;51.17;20.63;;;;;;;7.86;44.60;102933.31;4971236;28;123903;-60
2022/03/25 06:23:47;;;;;;;52.80;21.02;;;;;;;7.88;44.43;102930.69;4973896;28;110281;-60
2022/03/25 06:26:15;;;;;;;55.25;21.88;;;;;;;7.90;44.79;102934.22;4971130;28;110710;-60
2022/03/25 06:28:42;;;;;;;54.20;22.67;;;;;;;7.93;44.71;102937.72;4973086;28;123705;-61
2022/03/25 06:31:09;;;;;;;55.03;22.05;;;;;;;7.99;45.00;102943.00;4973508;28;124694;-60
2022/03/25 06:33:37;;;;;;;55.40;23.40;;;;;;;8.06;44.85;102945.63;4975015;28;108840;-60
2022/03/25 06:36:05;;;;;;;55.55;22.85;;;;;;;8.13;44.94;102942.09;4973245;28;109942;-60
2022/03/25 06:38:32;;;;;;;59.50;24.23;;;;;;;8.22;45.06;102942.09;4975717;28;125283;-61
2022/03/25 06:41:01;;;;;;;57.75;23.27;;;;;;;8.33;45.30;102940.31;4973629;28;124009;-61
2022/03/25 06:43:29;;;;;;;65.10;24.92;;;;;;;8.45;45.59;102933.28;4976710;28;109302;-61
2022/03/25 06:45:56;;;;;;;59.80;24.50;;;;;;;8.58;45.65;102940.28;4975120;28;109943;-60
2022/03/25 06:48:23;;;;;;;52.25;22.83;;;;;;;8.71;45.48;102942.00;4974507;28;124342;-60
2022/03/25 06:50:50;;;;;;;63.70;25.02;;;;;;;8.87;45.54;102944.59;4973327;28;124734;-60
2022/03/25 06:53:18;;;;;;;56.38;23.75;;;;;;;9.02;45.79;102941.00;4974099;28;109254;-61
2022/03/25 06:55:45;;;;;;;60.15;24.85;;;;;;;9.19;45.92;102944.44;4973827;28;109951;-61
2022/03/25 06:58:13;;;;;;;63.42;26.73;;;;;;;9.34;45.80;102944.38;4973423;28;124706;-61
2022/03/25 07:00:41;;;;;;;63.78;25.48;;;;;;;9.51;46.02;102941.63;4972738;28;123809;-61
2022/03/25 07:03:09;;;;;;;62.28;26.55;;;;;;;9.65;45.73;102943.28;4973243;28;109437;-61
2022/03/25 07:05:38;;;;;;;63.78;27.13;;;;;;;9.81;45.81;102960.78;4976090;28;109987;-61
2022/03/25 07:08:05;;;;;;;58.75;26.15;;;;;;;9.98;46.00;102957.13;4973487;28;124629;-61
2022/03/25 07:10:33;;;;;;;63.03;27.92;;;;;;;10.14;46.09;102953.47;4975213;28;123798;-61
2022/03/25 07:13:01;;;;;;;60.67;26.70;;;;;;;10.30;46.03;102960.41;4974800;28;109695;-61
2022/03/25 07:15:29;;;;;;;65.43;27.88;;;;;;;10.45;45.95;102963.78;4975122;28;109175;-61
2022/03/25 07:17:57;;;;;;;61.05;27.05;;;;;;;10.59;45.56;102966.31;4975052;28;123397;-61
2022/03/25 07:20:26;;;;;;;60.72;27.33;;;;;;;10.71;45.48;102966.16;4974264;28;123009;-61
2022/03/25 07:22:54;;;;;;;62.15;27.63;;;;;;;10.83;45.49;102971.31;4974030;28;109249;-61
2022/03/25 07:25:21;;;;;;;61.85;28.17;;;;;;;10.95;45.69;102970.28;4973320;28;109886;-61
2022/03/25 07:27:49;;;;;;;65.47;28.55;;;;;;;11.09;45.36;102968.34;4973180;28;124389;-61
2022/03/25 07:30:17;;;;;;;68.25;29.77;;;;;;;11.19;45.34;102968.19;4973498;28;124010;-61
2022/03/25 07:32:44;;;;;;;71.18;30.52;;;;;;;11.29;45.41;102975.16;4972570;28;109826;-61
2022/03/25 07:35:12;;;;;;;63.10;29.92;;;;;;;11.36;45.26;102976.81;4975877;28;109852;-61
2022/03/25 07:37:41;;;;;;;65.30;29.75;;;;;;;11.44;45.13;102974.06;4971575;28;124902;-61
2022/03/25 07:40:10;;;;;;;69.88;30.88;;;;;;;11.54;45.11;102972.13;4970692;28;123742;-61
2022/03/25 07:42:37;;;;;;;65.80;31.55;;;;;;;11.61;44.93;102976.47;4971968;28;109178;-61
2022/03/25 07:45:08;;;;;;;70.70;32.33;;;;;;;11.68;45.33;102979.00;4971640;28;110969;-61
2022/03/25 07:47:40;;;;;;;70.95;32.50;;;;;;;11.78;45.32;102987.69;4973581;28;123051;-61
2022/03/25 07:50:09;;;;;;;73.22;33.33;;;;;;;11.85;45.38;102986.69;4969447;28;124889;-61
2022/03/25 07:52:37;;;;;;;68.90;32.05;;;;;;;11.96;45.00;103001.59;4973037;28;109070;-61
2022/03/25 07:55:04;;;;;;;70.93;33.92;;;;;;;12.06;45.15;102997.91;4956874;28;110724;-61
2022/03/25 07:57:34;;;;;;;71.72;32.85;;;;;;;12.17;45.31;103003.91;4972828;28;124745;-62
2022/03/25 08:00:11;;;;;;;76.22;33.20;;;;;;;12.26;45.12;103003.75;4973827;28;122866;-61
2022/03/25 08:02:46;;;;;;;73.72;34.33;;;;;;;12.39;44.96;103014.16;4975260;28;109942;-62
2022/03/25 08:05:14;;;;;;;78.50;34.80;;;;;;;12.50;44.78;103001.56;4971751;28;109785;-61
2022/03/25 08:07:49;;;;;;;76.82;36.05;;;;;;;12.63;44.93;103002.22;4972755;28;124332;-61
2022/03/25 08:10:23;;;;;;;69.65;34.22;;;;;;;12.74;44.76;103010.00;4970611;28;123825;-61
2022/03/25 08:12:53;;;;;;;73.15;35.05;;;;;;;12.87;44.70;103006.19;4972841;28;109396;-61
2022/03/25 08:15:21;;;;;;;73.80;33.42;;;;;;;12.99;44.51;103005.91;4973241;28;108791;-61
2022/03/25 08:17:49;;;;;;;68.93;34.67;;;;;;;13.12;44.40;103018.97;4972268;28;124569;-61
2022/03/25 08:20:28;;;;;;;72.13;34.15;;;;;;;13.23;44.41;103011.66;4971173;28;123410;-61
2022/03/25 08:22:57;;;;;;;68.85;34.80;;;;;;;13.32;44.13;103014.16;4973159;28;108554;-61
2022/03/25 08:28:13;;;;;;;74.18;34.80;;;;;;;13.51;43.89;103013.75;4953487;28;124114;-61
2022/03/25 08:30:41;;;;;;;70.57;34.50;;;;;;;13.61;43.76;103020.59;4953477;28;124260;-61
2022/03/25 08:33:09;;;;;;;69.70;34.45;;;;;;;13.71;43.57;103016.84;4954660;28;109473;-61
2022/03/25 08:35:37;;;;;;;70.70;33.97;;;;;;;13.82;43.62;103014.78;4961516;28;109084;-61
2022/03/25 08:38:05;;;;;;;72.25;35.17;;;;;;;13.93;43.43;103018.97;4971212;28;123923;-62
2022/03/25 08:40:34;;;;;;;69.45;33.08;;;;;;;14.03;43.36;103017.81;4972183;28;122794;-62
2022/03/25 08:43:17;;;;;;;68.03;33.22;;;;;;;14.16;42.95;103019.25;4972751;28;110266;-61
2022/03/25 08:45:44;;;;;;;69.88;33.03;;;;;;;14.27;42.72;103010.13;4972545;28;109854;-61
2022/03/25 08:48:11;;;;;;;65.75;33.35;;;;;;;14.37;42.69;103022.28;4974105;28;125931;-62
2022/03/25 08:50:39;;;;;;;71.43;31.75;;;;;;;14.47;42.43;103021.16;4970958;28;125097;-61
2022/03/25 08:53:06;;;;;;;67.30;32.20;;;;;;;14.56;42.50;103023.59;4971788;28;110134;-62
2022/03/25 08:55:34;;;;;;;64.82;32.50;;;;;;;14.68;42.33;103026.88;4972717;28;109997;-62
2022/03/25 08:58:01;;;;;;;63.60;32.00;;;;;;;14.77;41.93;103021.28;4971599;28;124514;-63
2022/03/25 09:00:29;;;;;;;69.32;33.50;;;;;;;14.86;41.57;103034.38;4972708;28;122963;-62
2022/03/25 09:02:57;;;;;;;67.95;32.17;;;;;;;14.92;41.31;103036.84;4974646;28;109565;-62
2022/03/25 09:05:25;;;;;;;66.40;31.25;;;;;;;14.97;41.31;103034.94;4972480;28;110392;-62
2022/03/25 09:07:52;;;;;;;67.30;32.88;;;;;;;15.06;41.26;103043.59;4972398;28;124523;-61
2022/03/25 09:10:19;;;;;;;62.13;31.75;;;;;;;15.12;41.01;103032.72;4972160;28;123741;-62
2022/03/25 09:12:46;;;;;;;65.97;32.20;;;;;;;15.22;40.82;103038.66;4973170;28;109107;-62
2022/03/25 09:15:15;;;;;;;65.28;32.65;;;;;;;15.28;40.60;103049.19;4974426;28;110076;-62
2022/03/25 09:17:45;;;;;;;63.25;31.95;;;;;;;15.36;40.28;103041.81;4970993;28;123998;-62
2022/03/25 09:20:13;;;;;;;61.88;31.58;;;;;;;15.43;40.05;103047.88;4973660;28;123698;-62
2022/03/25 09:22:41;;;;;;;62.08;30.38;;;;;;;15.48;39.64;103051.25;4972167;28;109144;-62
2022/03/25 09:25:10;;;;;;;57.10;28.15;;;;;;;15.54;39.30;103046.59;4973590;28;110252;-62
2022/03/25 09:27:39;;;;;;;58.85;29.48;;;;;;;15.61;39.34;103049.94;4971490;28;124066;-62
2022/03/25 09:30:09;;;;;;;60.00;30.17;;;;;;;15.68;39.19;103048.84;4970523;28;123627;-62
2022/03/25 09:32:56;;;;;;;65.10;29.67;;;;;;;15.75;39.12;103050.44;4972213;28;109437;-62
2022/03/25 09:35:23;;;;;;;56.50;29.40;;;;;;;15.81;38.99;103052.03;4973519;28;110427;-62
2022/03/25 09:37:51;;;;;;;59.15;29.67;;;;;;;15.88;38.78;103055.38;4971121;28;124156;-62
2022/03/25 09:40:22;;;;;;;58.13;29.00;;;;;;;15.93;38.73;103050.75;4970152;28;124979;-62
2022/03/25 09:42:51;;;;;;;61.65;30.55;;;;;;;15.99;38.56;103042.53;4971918;28;110678;-62
2022/03/25 09:45:20;;;;;;;61.53;28.65;;;;;;;16.07;38.61;103040.50;4972288;28;110360;-62
2022/03/25 09:47:48;;;;;;;58.70;29.02;;;;;;;16.18;38.63;103041.94;4972909;28;123606;-61
2022/03/25 09:50:21;;;;;;;60.42;29.75;;;;;;;16.25;38.52;103038.13;4969206;28;124549;-62
2022/03/25 09:52:50;;;;;;;59.13;29.88;;;;;;;16.34;38.49;103040.50;4974005;28;109284;-62
2022/03/25 09:55:40;;;;;;;57.20;30.27;;;;;;;16.44;38.18;103039.25;4970395;28;109814;-62
2022/03/25 09:58:11;;;;;;;59.47;30.13;;;;;;;16.54;38.49;103034.47;4972346;28;124182;-62
2022/03/25 10:00:38;;;;;;;64.10;30.73;;;;;;;16.62;38.27;103036.88;4972275;28;124292;-62
2022/03/25 10:03:06;;;;;;;60.42;29.70;;;;;;;16.68;38.06;103036.66;4973642;28;109185;-62
2022/03/25 10:05:53;;;;;;;59.17;30.13;;;;;;;16.75;37.94;103038.19;4970827;28;110509;-62
2022/03/25 10:08:33;;;;;;;61.40;30.10;;;;;;;16.83;38.17;103030.78;4969776;28;124046;-62
2022/03/25 10:11:21;;;;;;;58.67;29.55;;;;;;;16.92;37.94;103041.16;4969688;28;125143;-62
2022/03/25 10:14:09;;;;;;;59.53;31.05;;;;;;;17.02;37.76;103035.47;4973117;28;109480;-62
2022/03/25 10:16:37;;;;;;;59.58;28.35;;;;;;;17.10;37.93;103038.72;4975017;28;97512;-62
2022/03/25 10:19:05;;;;;;;57.70;29.23;;;;;;;17.18;37.72;103036.63;4970770;28;124246;-61
2022/03/25 10:21:49;;;;;;;56.83;29.83;;;;;;;17.25;37.82;103027.44;4972123;28;124196;-62
2022/03/25 10:24:18;;;;;;;59.10;29.17;;;;;;;17.37;37.80;103030.59;4973589;28;109460;-62
2022/03/25 10:26:46;;;;;;;64.20;30.20;;;;;;;17.46;37.70;103030.19;4970958;28;110272;-62
2022/03/25 10:29:22;;;;;;;57.10;29.70;;;;;;;17.56;37.80;103020.88;4952630;28;124884;-62
2022/03/25 10:32:13;;;;;;;53.90;29.38;;;;;;;17.66;37.62;103024.06;4969995;28;123952;-62
2022/03/25 10:34:42;;;;;;;55.55;29.42;;;;;;;17.74;37.61;103019.25;4970535;28;110388;-61
2022/03/25 10:37:14;;;;;;;56.03;29.65;;;;;;;17.81;37.67;103017.22;4971101;28;110309;-62
2022/03/25 10:39:51;;;;;;;55.47;30.25;;;;;;;17.89;37.21;103028.50;4971204;28;124817;-61
2022/03/25 10:42:19;;;;;;;56.53;29.27;;;;;;;17.93;37.30;103018.53;4970215;28;124228;-62
2022/03/25 10:44:46;;;;;;;52.72;29.88;;;;;;;17.99;37.14;103013.81;4969227;28;110082;-62
2022/03/25 10:47:16;;;;;;;56.85;28.80;;;;;;;18.04;37.21;103017.16;4973447;28;109946;-62
2022/03/25 10:49:46;;;;;;;56.35;30.38;;;;;;;18.11;37.27;103016.91;4969849;28;123885;-62
2022/03/25 10:52:27;;;;;;;57.20;29.77;;;;;;;18.19;37.01;103017.44;4971292;28;124406;-62
2022/03/25 10:55:22;;;;;;;57.17;28.60;;;;;;;18.25;37.17;103011.81;4970820;28;109411;-62
2022/03/25 10:57:58;;;;;;;58.60;29.20;;;;;;;18.34;37.11;103011.41;4971244;28;110225;-62
2022/03/25 11:00:26;;;;;;;56.13;28.55;;;;;;;18.42;37.07;103011.97;4970251;28;124098;-62
2022/03/25 11:02:54;;;;;;;55.55;28.92;;;;;;;18.48;36.90;103011.72;4971907;28;122692;-62
2022/03/25 11:05:22;;;;;;;59.08;29.25;;;;;;;18.57;36.96;103014.91;4972831;28;109088;-62
2022/03/25 11:07:50;;;;;;;57.50;29.77;;;;;;;18.66;36.92;103009.13;4970605;28;110628;-62
2022/03/25 11:10:18;;;;;;;57.83;30.27;;;;;;;18.74;36.80;103007.00;4969701;28;124136;-62
2022/03/25 11:12:51;;;;;;;55.65;30.30;;;;;;;18.79;36.62;103013.00;4972056;28;123050;-61
2022/03/25 11:15:20;;;;;;;56.65;29.48;;;;;;;18.85;36.88;103015.47;4970612;28;109026;-61